Time;durP1;ratioP1;P1;durP2;ratioP2;P2;SDS_P1;SDS_P2;PMS_P1;PMS_P2;Temp;Humidity;BMP_temperature;BMP_pressure;BME280_temperature;BME280_humidity;BME280_pressure;Samples;Min_cycle;Max_cycle;Signal;HPM_P1;HPM_P2
2022/08/19 00:02:16;;;;;;;9.45;4.10;;;27.90;98.80;;;;;;5101280;28;20070;-73
2022/08/19 00:04:46;;;;;;;12.13;4.22;;;27.80;98.60;;;;;;5067255;28;20037;-73
2022/08/19 00:07:13;;;;;;;6.78;3.45;;;27.80;98.30;;;;;;5083717;28;20047;-73
2022/08/19 00:09:41;;;;;;;6.47;4.22;;;27.70;98.40;;;;;;5066934;28;20522;-72
2022/08/19 00:12:09;;;;;;;5.70;3.90;;;27.70;98.70;;;;;;5101097;28;20066;-75
2022/08/19 00:14:38;;;;;;;7.38;4.38;;;27.60;98.80;;;;;;5068547;28;20040;-74
2022/08/19 00:17:06;;;;;;;6.88;4.55;;;27.60;98.70;;;;;;5066805;28;20040;-74
2022/08/19 00:19:36;;;;;;;9.18;4.30;;;27.60;98.60;;;;;;5050752;28;20041;-72
2022/08/19 00:22:05;;;;;;;7.40;4.30;;;27.60;98.50;;;;;;5066863;28;20090;-73
2022/08/19 00:24:32;;;;;;;8.30;4.25;;;27.60;98.50;;;;;;5067157;28;20056;-73
2022/08/19 00:27:01;;;;;;;6.50;4.22;;;27.70;98.50;;;;;;5085903;28;20521;-73
2022/08/19 00:29:29;;;;;;;6.68;4.22;;;27.80;98.60;;;;;;5087091;28;20183;-73
2022/08/19 00:31:58;;;;;;;8.85;4.22;;;27.80;98.60;;;;;;5071849;28;20052;-73
2022/08/19 00:34:29;;;;;;;10.77;4.22;;;27.80;98.60;;;;;;5084771;28;20044;-74
2022/08/19 00:36:58;;;;;;;7.00;4.78;;;27.80;98.60;;;;;;5103396;28;20051;-73
2022/08/19 00:39:26;;;;;;;7.97;4.35;;;27.70;98.80;;;;;;5068928;28;20101;-73
2022/08/19 00:41:53;;;;;;;6.53;4.25;;;27.70;98.90;;;;;;5069659;28;20434;-74
2022/08/19 00:44:25;;;;;;;10.00;4.40;;;27.70;99.10;;;;;;5070083;28;20091;-72
2022/08/19 00:46:55;;;;;;;7.93;4.47;;;27.50;99.30;;;;;;5069634;28;20448;-72
2022/08/19 00:49:29;;;;;;;8.32;4.50;;;27.50;99.50;;;;;;5070869;28;20394;-72
2022/08/19 00:52:21;;;;;;;8.63;4.60;;;27.30;99.50;;;;;;5069713;28;20083;-73
2022/08/19 00:54:49;;;;;;;10.48;5.00;;;27.20;99.40;;;;;;5074916;28;20106;-72
2022/08/19 00:57:26;;;;;;;10.98;5.05;;;27.10;99.40;;;;;;5086475;28;20359;-73
2022/08/19 00:59:56;;;;;;;13.48;4.75;;;27.20;99.30;;;;;;5069633;28;20049;-72
2022/08/19 01:02:25;;;;;;;12.57;5.50;;;27.20;99.20;;;;;;5071213;28;20377;-72
2022/08/19 01:04:53;;;;;;;8.55;4.43;;;27.10;99.10;;;;;;5071042;28;20249;-73
2022/08/19 01:07:21;;;;;;;11.73;6.22;;;27.10;99.10;;;;;;5103063;28;20101;-72
2022/08/19 01:09:49;;;;;;;11.00;5.07;;;27.10;99.10;;;;;;5070887;28;20131;-73
2022/08/19 01:12:17;;;;;;;9.30;4.90;;;27.00;99.00;;;;;;5069984;28;20064;-73
2022/08/19 01:14:46;;;;;;;11.07;4.97;;;27.10;98.70;;;;;;5070738;28;20047;-72
2022/08/19 01:17:15;;;;;;;10.80;5.43;;;27.20;98.50;;;;;;5070476;28;20040;-72
2022/08/19 01:19:45;;;;;;;13.80;5.65;;;27.30;98.20;;;;;;5070698;28;20080;-72
2022/08/19 01:22:47;;;;;;;13.60;5.43;;;27.30;98.00;;;;;;5103078;28;20048;-73
2022/08/19 01:25:21;;;;;;;14.35;5.05;;;27.40;97.80;;;;;;5070385;28;20159;-72
2022/08/19 01:27:50;;;;;;;10.07;5.90;;;27.50;97.60;;;;;;5069153;28;20104;-72
2022/08/19 01:30:33;;;;;;;11.02;4.90;;;27.40;97.40;;;;;;5067542;28;20041;-72
2022/08/19 01:33:01;;;;;;;14.40;4.97;;;27.40;97.10;;;;;;5049442;28;20059;-72
2022/08/19 01:35:31;;;;;;;10.88;5.03;;;27.50;96.90;;;;;;5032619;28;20053;-72
2022/08/19 01:38:07;;;;;;;11.27;5.05;;;27.50;96.70;;;;;;5049095;28;20479;-72
2022/08/19 01:40:38;;;;;;;12.15;5.38;;;27.50;96.70;;;;;;5049002;28;20116;-72
2022/08/19 01:43:06;;;;;;;7.60;4.28;;;27.60;96.70;;;;;;5032465;28;20152;-74
2022/08/19 01:45:40;;;;;;;7.72;3.67;;;27.60;96.70;;;;;;5050254;28;20045;-73
2022/08/19 01:48:08;;;;;;;9.48;5.38;;;27.60;96.40;;;;;;5048867;28;20052;-73
2022/08/19 01:50:37;;;;;;;12.93;4.60;;;27.60;96.30;;;;;;5048718;28;20048;-73
2022/08/19 01:53:08;;;;;;;12.82;4.45;;;27.70;96.30;;;;;;5064764;28;20045;-74
2022/08/19 01:55:40;;;;;;;9.98;4.90;;;27.70;96.40;;;;;;5048630;28;20053;-72
2022/08/19 01:58:16;;;;;;;14.18;5.22;;;27.70;96.20;;;;;;5049827;28;20479;-73
2022/08/19 02:00:45;;;;;;;12.65;5.25;;;27.70;96.30;;;;;;5065098;28;20063;-73
2022/08/19 02:03:13;;;;;;;8.82;5.45;;;27.70;96.20;;;;;;5031326;28;20056;-72
2022/08/19 02:05:41;;;;;;;12.73;5.15;;;27.70;96.20;;;;;;5049926;28;20072;-72
2022/08/19 02:08:11;;;;;;;8.57;4.72;;;27.60;96.20;;;;;;5081508;28;20044;-72
2022/08/19 02:10:43;;;;;;;13.07;5.13;;;27.50;96.40;;;;;;5048459;28;20049;-73
2022/08/19 02:13:13;;;;;;;16.95;4.80;;;27.50;96.50;;;;;;5064302;28;20118;-73
2022/08/19 02:15:41;;;;;;;11.88;4.18;;;27.40;96.70;;;;;;5032137;28;20136;-72
2022/08/19 02:18:08;;;;;;;12.25;4.95;;;27.30;96.90;;;;;;5063096;28;20051;-73
2022/08/19 02:20:38;;;;;;;19.08;6.03;;;27.40;96.90;;;;;;5051614;28;20527;-73
2022/08/19 02:23:06;;;;;;;11.00;5.22;;;27.40;97.00;;;;;;5067961;28;20059;-73
2022/08/19 02:25:34;;;;;;;10.98;5.22;;;27.50;97.00;;;;;;5068311;28;20040;-72
2022/08/19 02:28:03;;;;;;;13.35;5.72;;;27.50;97.10;;;;;;5067753;28;20057;-72
2022/08/19 02:30:31;;;;;;;11.13;4.85;;;27.50;97.10;;;;;;5084899;28;20075;-72
2022/08/19 02:32:59;;;;;;;10.40;4.93;;;27.50;97.20;;;;;;5051243;28;20044;-73
2022/08/19 02:35:26;;;;;;;10.57;5.10;;;27.50;97.30;;;;;;5068259;28;20040;-72
2022/08/19 02:40:40;;;;;;;;;;;27.60;97.40;;;;;;5050981;28;20102;-73
2022/08/19 02:43:08;;;;;;;15.68;5.32;;;27.60;97.60;;;;;;5067539;28;19943;-73
2022/08/19 02:45:39;;;;;;;15.85;5.53;;;27.50;97.60;;;;;;5050863;28;20498;-72
2022/08/19 02:48:08;;;;;;;14.00;4.57;;;27.50;97.80;;;;;;5067231;28;20052;-72
2022/08/19 02:50:40;;;;;;;8.30;3.85;;;27.40;98.00;;;;;;5050126;28;20648;-72
2022/08/19 02:53:08;;;;;;;15.50;4.97;;;27.40;98.50;;;;;;5068441;28;20059;-73
2022/08/19 02:55:35;;;;;;;9.93;4.75;;;27.40;98.70;;;;;;5067405;28;20151;-73
2022/08/19 02:58:03;;;;;;;9.88;5.20;;;27.30;99.20;;;;;;5065998;28;20052;-73
2022/08/19 03:00:30;;;;;;;13.70;5.28;;;27.30;99.50;;;;;;5098373;28;20033;-73
2022/08/19 03:02:58;;;;;;;9.43;4.28;;;27.30;99.70;;;;;;5066987;28;20229;-72
2022/08/19 03:05:27;;;;;;;25.67;6.28;;;27.20;99.70;;;;;;5066639;28;20050;-73
2022/08/19 03:07:55;;;;;;;19.92;5.85;;;27.20;99.90;;;;;;5084461;28;20054;-73
2022/08/19 03:10:22;;;;;;;12.75;5.63;;;27.10;99.90;;;;;;5067093;28;20445;-74
2022/08/19 03:12:50;;;;;;;10.52;6.00;;;27.10;99.90;;;;;;5082418;28;20491;-72
2022/08/19 03:15:18;;;;;;;13.00;5.18;;;27.10;99.90;;;;;;5066539;28;20063;-72
2022/08/19 03:17:45;;;;;;;9.23;4.47;;;27.10;99.90;;;;;;5066712;28;20832;-73
2022/08/19 03:20:13;;;;;;;12.18;4.65;;;27.10;99.90;;;;;;5100511;28;20469;-72
2022/08/19 03:22:40;;;;;;;14.10;5.25;;;27.00;99.90;;;;;;5084061;28;20471;-72
2022/08/19 03:25:08;;;;;;;9.82;5.18;;;27.00;99.90;;;;;;5067775;28;20044;-73
2022/08/19 03:27:35;;;;;;;13.23;4.65;;;27.00;99.90;;;;;;5068393;28;20075;-73
2022/08/19 03:30:04;;;;;;;14.13;4.53;;;26.80;99.90;;;;;;5083546;28;20127;-72
2022/08/19 03:32:31;;;;;;;13.35;5.85;;;26.80;99.90;;;;;;5100409;28;20037;-72
2022/08/19 03:35:00;;;;;;;15.18;5.80;;;26.70;99.90;;;;;;5100362;28;20076;-73
2022/08/19 03:37:28;;;;;;;12.98;5.35;;;26.60;99.90;;;;;;5100316;28;20059;-73
2022/08/19 03:39:55;;;;;;;17.90;5.10;;;26.60;99.90;;;;;;5100775;28;20070;-72
2022/08/19 03:42:23;;;;;;;10.95;6.18;;;26.40;99.90;;;;;;5067567;28;20160;-72
2022/08/19 03:44:50;;;;;;;17.65;4.82;;;26.40;99.90;;;;;;5067424;28;20445;-72
2022/08/19 03:47:18;;;;;;;13.85;5.10;;;26.40;99.90;;;;;;5066869;28;20048;-73
2022/08/19 03:49:46;;;;;;;12.02;6.25;;;26.40;99.90;;;;;;5066795;28;20436;-72
2022/08/19 03:52:13;;;;;;;11.25;4.82;;;26.40;99.90;;;;;;5066837;28;20052;-72
2022/08/19 03:54:41;;;;;;;14.80;4.95;;;26.50;99.80;;;;;;5067895;28;20041;-73
2022/08/19 03:57:09;;;;;;;12.80;4.57;;;26.50;99.30;;;;;;5083439;28;20058;-72
2022/08/19 03:59:38;;;;;;;16.25;4.90;;;26.60;98.90;;;;;;5067981;28;20137;-72
2022/08/19 04:02:10;;;;;;;14.85;4.68;;;26.60;98.60;;;;;;5084933;28;20079;-72
2022/08/19 04:04:40;;;;;;;11.27;5.25;;;26.70;98.50;;;;;;5087174;28;20112;-72
2022/08/19 04:07:10;;;;;;;19.75;5.38;;;26.80;98.50;;;;;;5070683;28;20048;-72
2022/08/19 04:09:38;;;;;;;11.77;4.78;;;26.80;98.80;;;;;;5069199;28;20037;-72
2022/08/19 04:12:06;;;;;;;18.75;6.03;;;26.80;98.80;;;;;;5103860;28;20040;-72
2022/08/19 04:14:34;;;;;;;12.80;4.78;;;26.80;99.10;;;;;;5087316;28;20053;-73
2022/08/19 04:17:05;;;;;;;15.57;6.22;;;26.80;99.40;;;;;;5069643;28;20553;-72
2022/08/19 04:19:35;;;;;;;32.35;7.43;;;26.70;99.70;;;;;;5053735;28;20056;-72
2022/08/19 04:22:03;;;;;;;14.30;4.97;;;26.70;99.90;;;;;;5086950;28;20055;-72
2022/08/19 04:24:31;;;;;;;14.07;5.18;;;26.60;99.90;;;;;;5053811;28;20059;-72
2022/08/19 04:27:01;;;;;;;12.70;5.75;;;26.80;99.90;;;;;;5053900;28;20195;-72
2022/08/19 04:29:29;;;;;;;12.30;5.43;;;26.80;99.90;;;;;;5103609;28;20052;-72
2022/08/19 04:31:58;;;;;;;11.38;5.82;;;26.70;99.90;;;;;;5104389;28;20059;-73
2022/08/19 04:34:29;;;;;;;10.00;5.07;;;26.80;99.90;;;;;;5104063;28;20478;-74
2022/08/19 04:36:58;;;;;;;11.05;5.68;;;26.80;99.90;;;;;;5070304;28;20141;-74
2022/08/19 04:45:13;;;;;;;10.52;5.10;;;26.60;99.90;;;;;;5053813;28;20135;-72
2022/08/19 04:47:43;;;;;;;16.27;3.90;;;26.60;99.90;;;;;;5070236;28;20453;-73
2022/08/19 04:50:11;;;;;;;11.70;3.83;;;26.70;99.90;;;;;;5070933;28;20094;-72
2022/08/19 04:52:42;;;;;;;14.00;6.30;;;26.70;99.90;;;;;;5069896;28;20462;-72
2022/08/19 04:55:11;;;;;;;14.00;4.22;;;26.80;99.90;;;;;;5053145;28;20064;-72
2022/08/19 04:57:41;;;;;;;20.75;5.30;;;26.70;99.90;;;;;;5086763;28;20143;-72
2022/08/19 05:00:09;;;;;;;11.90;5.00;;;26.60;99.90;;;;;;5070042;28;20056;-72
2022/08/19 05:02:38;;;;;;;12.75;4.43;;;26.50;99.90;;;;;;5103277;28;20052;-72
2022/08/19 05:05:06;;;;;;;10.55;3.83;;;26.60;99.90;;;;;;5100781;28;20036;-73
2022/08/19 05:07:34;;;;;;;9.70;3.95;;;26.60;99.90;;;;;;5052846;28;20056;-72
2022/08/19 05:10:05;;;;;;;12.10;5.63;;;26.70;99.90;;;;;;5070986;28;20503;-72
2022/08/19 05:12:33;;;;;;;8.02;4.40;;;26.80;99.90;;;;;;5052904;28;20048;-72
2022/08/19 05:15:03;;;;;;;16.67;4.60;;;26.90;99.90;;;;;;5069580;28;20045;-72
2022/08/19 05:17:31;;;;;;;13.82;5.25;;;26.90;99.90;;;;;;5070825;28;20363;-72
2022/08/19 05:22:52;;;;;;;9.77;3.95;;;27.10;99.90;;;;;;5052831;28;20139;-72
2022/08/19 05:25:21;;;;;;;17.02;5.32;;;27.10;99.90;;;;;;5085779;28;20044;-73
2022/08/19 05:27:48;;;;;;;8.55;3.90;;;27.20;99.90;;;;;;5085270;28;20415;-73
2022/08/19 05:30:17;;;;;;;11.70;4.80;;;27.30;99.90;;;;;;5070612;28;20047;-72
2022/08/19 05:32:44;;;;;;;9.43;4.68;;;27.50;99.90;;;;;;5085850;28;20076;-72
2022/08/19 05:35:12;;;;;;;12.20;4.22;;;27.50;99.90;;;;;;5068917;28;20159;-72
2022/08/19 05:37:40;;;;;;;9.50;4.22;;;27.70;99.90;;;;;;5069013;28;20094;-73
2022/08/19 05:40:09;;;;;;;8.80;4.00;;;27.90;99.90;;;;;;5070244;28;20146;-72
2022/08/19 05:42:37;;;;;;;12.77;5.00;;;28.00;99.90;;;;;;5068737;28;20048;-72
2022/08/19 05:45:06;;;;;;;8.50;5.00;;;28.20;99.90;;;;;;5102484;28;20048;-74
2022/08/19 05:47:35;;;;;;;10.68;4.25;;;28.50;99.90;;;;;;5068734;28;20625;-72
2022/08/19 05:50:03;;;;;;;8.88;4.80;;;28.60;99.90;;;;;;5068829;28;20045;-73
2022/08/19 05:52:32;;;;;;;11.20;4.53;;;28.80;99.90;;;;;;5102144;28;20040;-72
2022/08/19 05:55:00;;;;;;;10.52;5.15;;;28.90;99.90;;;;;;5069816;28;20151;-72
2022/08/19 05:57:29;;;;;;;13.48;5.15;;;29.00;99.90;;;;;;5084889;28;20149;-73
2022/08/19 06:00:00;;;;;;;13.30;5.35;;;29.10;99.90;;;;;;5102061;28;20568;-73
2022/08/19 06:02:38;;;;;;;9.48;4.53;;;29.10;99.90;;;;;;5069799;28;20090;-72
2022/08/19 06:05:08;;;;;;;9.88;5.43;;;29.20;99.90;;;;;;5083009;28;20045;-73
2022/08/19 06:07:38;;;;;;;9.98;4.63;;;29.30;99.90;;;;;;5068149;28;20131;-73
2022/08/19 06:10:10;;;;;;;12.18;4.47;;;29.30;99.90;;;;;;5068429;28;20043;-72
2022/08/19 06:12:38;;;;;;;10.23;5.60;;;29.50;99.90;;;;;;5069842;28;20045;-73
2022/08/19 06:15:11;;;;;;;15.13;4.78;;;29.60;99.90;;;;;;5102053;28;20803;-72
2022/08/19 06:17:39;;;;;;;11.90;4.60;;;29.60;99.90;;;;;;5068340;28;20060;-73
2022/08/19 06:20:13;;;;;;;14.60;4.35;;;29.60;99.90;;;;;;5067943;28;20656;-74
2022/08/19 06:22:44;;;;;;;13.63;4.55;;;29.50;99.90;;;;;;5085012;28;20044;-72
2022/08/19 06:25:14;;;;;;;12.80;4.45;;;29.70;99.90;;;;;;5101102;28;20040;-72
2022/08/19 06:27:42;;;;;;;10.18;4.38;;;29.80;99.90;;;;;;5067884;28;20044;-72
2022/08/19 06:30:29;;;;;;;13.30;5.45;;;29.50;99.90;;;;;;5101784;28;20062;-72
2022/08/19 06:32:57;;;;;;;7.10;4.10;;;29.40;99.90;;;;;;5069099;28;20207;-72
2022/08/19 06:35:26;;;;;;;16.67;5.25;;;29.50;99.90;;;;;;5069426;28;20189;-72
2022/08/19 06:37:56;;;;;;;11.38;4.55;;;29.70;99.90;;;;;;5084560;28;20443;-73
2022/08/19 06:40:23;;;;;;;12.15;4.50;;;29.70;99.90;;;;;;5101141;28;20123;-72
2022/08/19 06:42:52;;;;;;;15.55;4.35;;;29.90;99.90;;;;;;5068109;28;20487;-73
2022/08/19 06:45:22;;;;;;;14.63;4.95;;;30.10;99.90;;;;;;5067433;28;20048;-73
2022/08/19 06:47:54;;;;;;;13.23;4.97;;;30.20;99.90;;;;;;5069240;28;20064;-72
2022/08/19 06:50:23;;;;;;;12.02;4.60;;;30.40;99.50;;;;;;5101803;28;20056;-73
2022/08/19 06:52:50;;;;;;;11.52;4.28;;;30.60;99.00;;;;;;5065196;28;20041;-72
2022/08/19 06:55:18;;;;;;;15.80;4.57;;;30.80;98.50;;;;;;5080671;28;20052;-72
2022/08/19 06:57:47;;;;;;;11.52;4.22;;;30.80;98.50;;;;;;5047484;28;20067;-72
2022/08/19 07:00:15;;;;;;;9.75;3.25;;;30.60;98.70;;;;;;5047395;28;20056;-73
2022/08/19 07:02:44;;;;;;;11.90;4.47;;;30.70;98.10;;;;;;5047804;28;20083;-74
2022/08/19 07:05:12;;;;;;;11.98;5.30;;;30.60;98.00;;;;;;5064159;28;20044;-72
2022/08/19 07:07:42;;;;;;;15.07;5.30;;;30.70;98.30;;;;;;5048698;28;20049;-72
2022/08/19 07:10:11;;;;;;;12.38;3.83;;;30.70;97.70;;;;;;5047383;28;20076;-72
2022/08/19 07:12:40;;;;;;;11.07;4.30;;;30.80;97.70;;;;;;5048487;28;20546;-72
2022/08/19 07:15:09;;;;;;;14.63;4.95;;;31.00;97.50;;;;;;5047205;28;20107;-73
2022/08/19 07:17:39;;;;;;;11.35;5.10;;;31.00;97.20;;;;;;5063734;28;20661;-73
2022/08/19 07:20:07;;;;;;;12.70;4.30;;;31.20;96.70;;;;;;5047099;28;20211;-73
2022/08/19 07:22:35;;;;;;;9.45;4.70;;;31.20;97.10;;;;;;5047519;28;20049;-72
2022/08/19 07:25:03;;;;;;;14.02;4.57;;;31.40;97.40;;;;;;5048572;28;20384;-72
2022/08/19 07:27:31;;;;;;;12.77;4.68;;;31.60;97.10;;;;;;5048074;28;20132;-73
2022/08/19 07:29:58;;;;;;;14.30;4.22;;;31.80;96.90;;;;;;5047260;28;20098;-73
2022/08/19 07:32:26;;;;;;;12.27;4.78;;;31.90;96.50;;;;;;5048592;28;20041;-72
2022/08/19 07:34:55;;;;;;;18.70;5.63;;;32.00;96.50;;;;;;5049067;28;20082;-72
2022/08/19 07:37:26;;;;;;;12.48;3.92;;;32.00;96.10;;;;;;5052310;28;20359;-72
2022/08/19 07:39:57;;;;;;;15.90;5.13;;;32.00;95.30;;;;;;5067053;28;20483;-72
2022/08/19 07:42:25;;;;;;;13.52;4.47;;;32.10;95.40;;;;;;5051028;28;20103;-72
2022/08/19 07:44:53;;;;;;;11.55;4.80;;;32.20;95.40;;;;;;5050823;28;20135;-73
2022/08/19 07:47:21;;;;;;;11.73;3.67;;;32.20;95.20;;;;;;5084336;28;20076;-74
2022/08/19 07:49:48;;;;;;;9.30;4.00;;;32.30;96.00;;;;;;5051555;28;20053;-73
2022/08/19 07:52:16;;;;;;;13.27;3.78;;;32.40;96.00;;;;;;5052368;28;20064;-73
2022/08/19 07:54:44;;;;;;;19.92;5.88;;;32.40;95.90;;;;;;5083965;28;20040;-72
2022/08/19 07:57:11;;;;;;;11.35;4.80;;;32.60;95.80;;;;;;5052169;28;20048;-73
2022/08/19 07:59:39;;;;;;;15.55;5.28;;;32.70;95.50;;;;;;5052294;28;20094;-73
2022/08/19 08:02:08;;;;;;;11.45;4.68;;;32.90;95.10;;;;;;5084074;28;20072;-73
2022/08/19 08:10:09;;;;;;;17.90;4.47;;;33.00;93.70;;;;;;5067164;28;20395;-72
2022/08/19 08:12:41;;;;;;;17.23;5.68;;;33.10;93.90;;;;;;5051920;28;20113;-72
2022/08/19 08:15:16;;;;;;;18.13;4.80;;;33.20;93.70;;;;;;5051548;28;20514;-73
2022/08/19 08:17:45;;;;;;;14.90;4.53;;;33.20;93.30;;;;;;5050358;28;20037;-72
2022/08/19 08:20:14;;;;;;;12.02;4.32;;;33.30;93.10;;;;;;5051690;28;20072;-72
2022/08/19 08:25:35;;;;;;;11.35;3.88;;;33.10;92.30;;;;;;5050614;28;20152;-72
2022/08/19 08:28:04;;;;;;;12.52;4.53;;;33.00;92.70;;;;;;5050035;28;20053;-72
2022/08/19 08:30:36;;;;;;;14.35;4.93;;;33.10;93.70;;;;;;5066828;28;20405;-72
2022/08/19 08:33:04;;;;;;;10.98;4.07;;;33.30;93.60;;;;;;5034112;28;20395;-72
2022/08/19 08:35:33;;;;;;;9.70;3.78;;;33.40;93.90;;;;;;5050337;28;20498;-73
2022/08/19 08:38:03;;;;;;;16.52;4.88;;;33.70;93.50;;;;;;5062399;28;20186;-72
2022/08/19 08:40:38;;;;;;;15.48;5.05;;;33.80;92.60;;;;;;5050082;28;20049;-73
2022/08/19 08:43:21;;;;;;;16.75;4.00;;;33.90;92.10;;;;;;5050319;28;20143;-73
2022/08/19 08:46:12;;;;;;;10.60;4.00;;;33.90;92.00;;;;;;5051633;28;20792;-72
2022/08/19 08:49:05;;;;;;;11.35;3.78;;;33.80;92.80;;;;;;5066655;28;20388;-73
2022/08/19 08:51:49;;;;;;;12.38;4.55;;;34.00;93.00;;;;;;5033379;28;20496;-72
2022/08/19 08:54:20;;;;;;;14.10;5.78;;;34.20;93.10;;;;;;5050160;28;20060;-72
2022/08/19 08:56:51;;;;;;;13.18;6.15;;;34.30;93.70;;;;;;5066101;28;20041;-72
2022/08/19 08:59:26;;;;;;;15.57;5.85;;;34.30;94.30;;;;;;5050687;28;20388;-74
2022/08/19 09:01:56;;;;;;;14.23;4.43;;;34.40;94.60;;;;;;5050610;28;20519;-73
2022/08/19 09:04:24;;;;;;;11.00;4.18;;;34.30;94.40;;;;;;5049392;28;20052;-73
2022/08/19 09:07:15;;;;;;;13.15;4.28;;;34.20;94.90;;;;;;5049547;28;20059;-72
2022/08/19 09:09:50;;;;;;;9.32;4.57;;;34.20;95.20;;;;;;5049829;28;20053;-74
2022/08/19 09:12:21;;;;;;;12.82;4.07;;;34.20;95.50;;;;;;5051045;28;20218;-72
2022/08/19 09:15:04;;;;;;;11.88;3.85;;;34.00;96.10;;;;;;5049502;28;20175;-73
2022/08/19 09:17:33;;;;;;;12.10;4.25;;;33.80;96.60;;;;;;5049420;28;20053;-72
2022/08/19 09:20:09;;;;;;;14.98;3.90;;;33.90;96.90;;;;;;5050428;28;20098;-73
2022/08/19 09:22:38;;;;;;;20.17;5.13;;;33.90;97.50;;;;;;5049667;28;20213;-73
2022/08/19 09:25:09;;;;;;;9.48;4.30;;;33.90;98.10;;;;;;5065508;28;20061;-74
2022/08/19 09:27:38;;;;;;;16.65;4.85;;;34.00;98.40;;;;;;5050326;28;20136;-74
2022/08/19 09:30:08;;;;;;;13.30;5.93;;;34.20;98.30;;;;;;5066123;28;20092;-74
2022/08/19 09:32:36;;;;;;;10.27;5.07;;;34.10;98.20;;;;;;5065756;28;20041;-74
2022/08/19 09:35:06;;;;;;;12.68;4.97;;;33.90;98.40;;;;;;5050401;28;20136;-74
2022/08/19 09:37:34;;;;;;;12.70;4.82;;;33.80;98.30;;;;;;5065568;28;20052;-74
2022/08/19 09:40:02;;;;;;;12.20;4.18;;;33.90;97.70;;;;;;5050178;28;20096;-73
2022/08/19 09:42:30;;;;;;;14.10;4.78;;;33.80;97.10;;;;;;5050044;28;20037;-74
2022/08/19 09:44:58;;;;;;;15.68;5.57;;;33.90;97.80;;;;;;5050135;28;20127;-75
2022/08/19 09:47:27;;;;;;;11.40;3.90;;;33.60;98.20;;;;;;5049924;28;20064;-74
2022/08/19 09:49:57;;;;;;;18.15;5.15;;;33.50;97.10;;;;;;5050128;28;20052;-74
2022/08/19 09:52:24;;;;;;;14.38;4.82;;;33.40;97.40;;;;;;5048996;28;20447;-74
2022/08/19 09:54:53;;;;;;;13.18;4.78;;;33.40;97.20;;;;;;5050163;28;20068;-74
2022/08/19 09:57:20;;;;;;;15.98;5.25;;;33.60;95.70;;;;;;5049764;28;20041;-75
2022/08/19 09:59:49;;;;;;;14.00;6.05;;;33.80;95.80;;;;;;5048844;28;20037;-74
2022/08/19 10:02:18;;;;;;;16.05;4.43;;;33.80;95.80;;;;;;5048372;28;20499;-74
2022/08/19 10:07:33;;;;;;;16.67;5.57;;;34.20;95.20;;;;;;5048552;28;20057;-74
2022/08/19 10:10:02;;;;;;;13.77;5.28;;;34.60;94.90;;;;;;5049840;28;20048;-74
2022/08/19 10:12:30;;;;;;;13.60;5.13;;;34.80;95.10;;;;;;5049365;28;20100;-74
2022/08/19 10:14:57;;;;;;;15.63;5.68;;;34.80;95.10;;;;;;5056763;28;20118;-74
2022/08/19 10:17:25;;;;;;;11.27;4.72;;;35.20;94.80;;;;;;5051426;28;20134;-74
2022/08/19 10:19:53;;;;;;;15.45;5.40;;;35.20;94.70;;;;;;5051627;28;20045;-74
2022/08/19 10:22:22;;;;;;;11.68;5.13;;;35.30;94.40;;;;;;5069599;28;20044;-74
2022/08/19 10:24:51;;;;;;;13.57;5.00;;;35.10;93.50;;;;;;5084712;28;20049;-74
2022/08/19 10:27:19;;;;;;;12.75;5.63;;;35.00;93.20;;;;;;5069269;28;20040;-74
2022/08/19 10:29:47;;;;;;;20.77;6.03;;;35.10;92.20;;;;;;5068998;28;20056;-74
2022/08/19 10:32:15;;;;;;;13.82;4.68;;;35.10;91.90;;;;;;5101440;28;20037;-74
2022/08/19 10:34:43;;;;;;;22.40;5.95;;;35.00;91.90;;;;;;5084394;28;20053;-74
2022/08/19 10:37:10;;;;;;;13.75;4.20;;;35.30;92.10;;;;;;5067685;28;20040;-74
2022/08/19 10:39:38;;;;;;;14.02;5.97;;;35.50;92.10;;;;;;5051410;28;20079;-74
2022/08/19 10:42:07;;;;;;;17.58;5.25;;;35.30;91.30;;;;;;5051359;28;20105;-74
2022/08/19 10:44:35;;;;;;;17.88;5.78;;;35.20;91.40;;;;;;5051112;28;20055;-74
2022/08/19 10:47:04;;;;;;;11.68;5.32;;;35.20;91.30;;;;;;5084513;28;20040;-74
2022/08/19 10:49:32;;;;;;;12.82;5.15;;;35.20;91.00;;;;;;5084287;28;20122;-74
2022/08/19 10:57:52;;;;;;;16.48;5.60;;;35.00;88.30;;;;;;5064732;28;20075;-74
2022/08/19 11:00:27;;;;;;;16.63;5.57;;;34.80;89.20;;;;;;5068501;28;20521;-73
2022/08/19 11:02:55;;;;;;;20.25;5.45;;;34.90;88.50;;;;;;5060747;28;20041;-74
2022/08/19 11:05:23;;;;;;;22.15;5.75;;;35.00;87.10;;;;;;5046556;28;20139;-73
2022/08/19 11:07:51;;;;;;;16.48;5.65;;;35.00;85.80;;;;;;5080235;28;20351;-74
2022/08/19 11:10:19;;;;;;;18.42;5.78;;;35.20;85.70;;;;;;5047089;28;20045;-73
2022/08/19 11:12:48;;;;;;;27.58;5.85;;;35.20;85.30;;;;;;5063997;28;20045;-74
2022/08/19 11:15:16;;;;;;;18.23;5.55;;;35.30;86.40;;;;;;5030441;28;20140;-74
2022/08/19 11:17:43;;;;;;;21.23;6.30;;;35.30;86.50;;;;;;5063727;28;20564;-75
2022/08/19 11:20:13;;;;;;;15.55;5.93;;;35.40;85.80;;;;;;5030364;28;20147;-74
2022/08/19 11:22:41;;;;;;;20.67;5.57;;;35.60;85.80;;;;;;5079964;28;20102;-74
2022/08/19 11:25:10;;;;;;;14.68;5.47;;;35.60;85.00;;;;;;5063305;28;20037;-74
2022/08/19 11:27:42;;;;;;;14.43;5.57;;;35.70;84.10;;;;;;5046783;28;20049;-73
2022/08/19 11:30:12;;;;;;;16.00;5.40;;;35.50;83.70;;;;;;5048446;28;20041;-74
2022/08/19 11:32:41;;;;;;;18.85;5.68;;;35.40;83.80;;;;;;5046796;28;20048;-73
2022/08/19 11:35:11;;;;;;;13.45;4.88;;;35.40;83.60;;;;;;5048167;28;20161;-74
2022/08/19 11:37:39;;;;;;;17.15;5.22;;;35.40;83.70;;;;;;5063454;28;20116;-74
2022/08/19 11:40:07;;;;;;;16.65;5.53;;;35.40;84.40;;;;;;5080195;28;20045;-73
2022/08/19 11:45:22;;;;;;;20.85;5.57;;;35.40;85.20;;;;;;5046362;28;20053;-74
2022/08/19 11:47:50;;;;;;;16.38;5.72;;;35.10;86.30;;;;;;5048058;28;20102;-75
2022/08/19 11:50:18;;;;;;;15.95;5.60;;;35.20;86.30;;;;;;5080189;28;20063;-74
2022/08/19 11:52:46;;;;;;;17.25;5.32;;;35.20;84.20;;;;;;5063490;28;20130;-73
2022/08/19 11:55:14;;;;;;;15.57;5.85;;;35.10;85.00;;;;;;5070836;28;20085;-74
2022/08/19 11:57:43;;;;;;;21.88;5.22;;;35.30;85.60;;;;;;5046605;28;20122;-74
2022/08/19 12:00:12;;;;;;;15.60;5.53;;;35.40;86.00;;;;;;5063850;28;20045;-74
2022/08/19 12:02:42;;;;;;;19.95;6.25;;;35.40;83.10;;;;;;5048254;28;20049;-74
2022/08/19 12:05:09;;;;;;;14.68;6.07;;;35.40;83.20;;;;;;5080128;28;20384;-74
2022/08/19 12:07:39;;;;;;;18.58;6.28;;;35.40;83.70;;;;;;5079570;28;20091;-74
2022/08/19 12:10:07;;;;;;;20.08;5.88;;;35.40;83.70;;;;;;5046616;28;20052;-74
2022/08/19 12:12:35;;;;;;;14.73;4.28;;;35.40;83.00;;;;;;5047833;28;20048;-73
2022/08/19 12:15:03;;;;;;;14.30;5.18;;;35.50;83.70;;;;;;5048368;28;20041;-74
2022/08/19 12:17:31;;;;;;;15.10;5.65;;;35.60;83.90;;;;;;5079773;28;20049;-73
2022/08/19 12:19:58;;;;;;;12.75;5.30;;;35.80;82.80;;;;;;5079521;28;20092;-74
2022/08/19 12:22:27;;;;;;;16.73;5.80;;;36.00;82.60;;;;;;5048032;28;20135;-74
2022/08/19 12:24:54;;;;;;;14.15;4.93;;;36.10;82.30;;;;;;5050227;28;20525;-74
2022/08/19 12:27:22;;;;;;;13.00;5.13;;;36.20;82.20;;;;;;5083727;28;20053;-74
2022/08/19 12:29:52;;;;;;;10.65;4.60;;;36.00;82.40;;;;;;5082621;28;20399;-74
2022/08/19 12:32:21;;;;;;;12.88;4.22;;;36.00;82.60;;;;;;5051463;28;20045;-74
2022/08/19 12:34:48;;;;;;;14.32;4.65;;;36.00;80.50;;;;;;5050090;28;20056;-74
2022/08/19 12:37:16;;;;;;;17.00;4.57;;;36.00;80.60;;;;;;5066561;28;20499;-73
2022/08/19 12:39:54;;;;;;;15.88;5.05;;;36.10;80.80;;;;;;5049621;28;20037;-73
2022/08/19 12:42:23;;;;;;;22.10;6.68;;;36.10;80.70;;;;;;5051472;28;20395;-74
2022/08/19 12:44:51;;;;;;;16.30;6.35;;;36.10;92.10;;;;;;5087878;28;20048;-74
2022/08/19 12:47:20;;;;;;;15.80;6.47;;;35.80;94.10;;;;;;5071084;28;20537;-74
2022/08/19 12:49:49;;;;;;;14.45;6.50;;;35.50;95.10;;;;;;5071063;28;20044;-74
2022/08/19 12:52:20;;;;;;;15.68;6.22;;;35.20;95.40;;;;;;5071113;28;20128;-74
2022/08/19 12:54:48;;;;;;;21.67;6.68;;;35.00;94.80;;;;;;5069884;28;20047;-74
2022/08/19 12:57:17;;;;;;;18.52;5.15;;;34.70;94.20;;;;;;5069416;28;20056;-74
2022/08/19 12:59:45;;;;;;;17.98;6.45;;;34.70;94.20;;;;;;5053397;28;20080;-74
2022/08/19 13:02:13;;;;;;;23.05;6.32;;;34.60;94.00;;;;;;5085940;28;20143;-74
2022/08/19 13:04:41;;;;;;;19.83;6.53;;;34.60;94.20;;;;;;5069101;28;20099;-74
2022/08/19 13:07:08;;;;;;;21.98;6.10;;;34.50;94.40;;;;;;5070809;28;20131;-74
2022/08/19 13:09:37;;;;;;;16.20;5.68;;;34.50;94.60;;;;;;5070502;28;20044;-73
2022/08/19 13:12:07;;;;;;;17.60;5.63;;;34.40;94.60;;;;;;5102658;28;20279;-74
2022/08/19 13:14:35;;;;;;;24.45;7.75;;;34.40;94.70;;;;;;5070606;28;20052;-74
2022/08/19 13:17:03;;;;;;;16.83;7.53;;;34.40;94.50;;;;;;5102975;28;20154;-74
2022/08/19 13:19:31;;;;;;;22.45;8.48;;;34.40;94.70;;;;;;5052266;28;20051;-74
2022/08/19 13:22:00;;;;;;;19.63;9.25;;;34.50;94.70;;;;;;5052373;28;20079;-74